Simcoe-Lingwood

*Note: All times are displayed in the local standard time of the station location.
**Rain - Equipment is designed to accurately record liquid precipitation; under conditions when precipitation is not in liquid form, the data displayed may not properly reflect rainfall values.

Date Max Temp
(°C)
Min Temp
(°C)
Avg Temp
(°C)
Rain (mm) Avg RH (%)
Thu, Nov 15, 2018 0.8 -3.4 -1.6 0.0 89.3
Wed, Nov 14, 2018 0.3 -5.5 -2.8 0.0 69.9
Tue, Nov 13, 2018 2.1 -3.0 0.2 0.2 85.4
Mon, Nov 12, 2018 5.5 -0.6 2.8 0.0 82.6
Sun, Nov 11, 2018 4.0 -2.1 0.9 0.0 78.1
Sat, Nov 10, 2018 1.0 -3.5 -1.2 0.0 74.0
Fri, Nov 09, 2018 3.0 0.5 1.9 9.8 91.5
DateTime Avg Temp (°C) Rain (mm) RH (%)
Fri, Nov 16, 2018 09:00 0.6 0.0 96.0
Fri, Nov 16, 2018 08:00 0.4 0.0 99.0
Fri, Nov 16, 2018 07:00 0.6 0.0 99.3
Fri, Nov 16, 2018 06:00 0.7 0.0 99.5
Fri, Nov 16, 2018 05:00 1.2 0.0 100.0
Fri, Nov 16, 2018 04:00 0.4 0.2 100.0
Fri, Nov 16, 2018 03:00 0.4 0.0 100.0
Fri, Nov 16, 2018 02:00 0.7 0.0 100.0
Fri, Nov 16, 2018 01:00 0.6 0.0 100.0
Fri, Nov 16, 2018 00:00 0.7 0.0 100.0
Thu, Nov 15, 2018 23:00 0.2 0.0 100.0
Thu, Nov 15, 2018 22:00 -0.2 0.0 100.0
Thu, Nov 15, 2018 21:00 -0.8 0.0 100.0
Thu, Nov 15, 2018 20:00 -1.1 0.0 99.3
Thu, Nov 15, 2018 19:00 -1.3 0.0 99.0
Thu, Nov 15, 2018 18:00 -1.2 0.0 98.5
Thu, Nov 15, 2018 17:00 -0.3 0.0 98.0
Thu, Nov 15, 2018 16:00 -0.4 0.0 97.8
Thu, Nov 15, 2018 15:00 -0.3 0.0 96.8
Thu, Nov 15, 2018 14:00 0.0 0.0 84.8
Thu, Nov 15, 2018 13:00 -0.3 0.0 76.0
Thu, Nov 15, 2018 12:00 -1.1 0.0 77.3
Thu, Nov 15, 2018 11:00 -2.0 0.0 78.8
Thu, Nov 15, 2018 10:00 -2.5 0.0 79.5
Thu, Nov 15, 2018 09:00 -2.7 0.0 81.8
Thu, Nov 15, 2018 08:00 -2.9 0.0 82.5
Thu, Nov 15, 2018 07:00 -3.2 0.0 82.8
Thu, Nov 15, 2018 06:00 -3.3 0.0 84.3
Thu, Nov 15, 2018 05:00 -3.1 0.0 85.0
Thu, Nov 15, 2018 04:00 -2.8 0.0 84.8
Thu, Nov 15, 2018 03:00 -2.8 0.0 84.0
Thu, Nov 15, 2018 02:00 -3.1 0.0 85.3
Thu, Nov 15, 2018 01:00 -3.3 0.0 88.3
Thu, Nov 15, 2018 00:00 -3.4 0.0 87.3
Wed, Nov 14, 2018 23:00 -3.1 0.0 83.0
Wed, Nov 14, 2018 22:00 -3.1 0.0 84.5
Wed, Nov 14, 2018 21:00 -2.8 0.0 82.8
Wed, Nov 14, 2018 20:00 -2.5 0.0 82.5
Wed, Nov 14, 2018 19:00 -1.7 0.0 70.3
Wed, Nov 14, 2018 18:00 -1.5 0.0 64.5
Wed, Nov 14, 2018 17:00 -1.1 0.0 63.0
Wed, Nov 14, 2018 16:00 -0.6 0.0 58.5
Wed, Nov 14, 2018 15:00 -0.1 0.0 55.3
Wed, Nov 14, 2018 14:00 0.2 0.0 52.8
Wed, Nov 14, 2018 13:00 -0.6 0.0 57.3
Wed, Nov 14, 2018 12:00 -1.3 0.0 61.8
Wed, Nov 14, 2018 11:00 -1.9 0.0 64.8
Wed, Nov 14, 2018 10:00 -3.1 0.0 67.8


asterix Register now to access more data! asterix